createdAt,value
2018-06-30T05:04:26.659Z,6.70
2018-06-30T05:09:30.752Z,6.20
2018-06-30T05:14:34.086Z,6.07
2018-06-30T05:19:56.237Z,6.30
2018-06-30T05:25:00.341Z,6.10
2018-06-30T05:30:03.726Z,5.40
2018-06-30T05:35:07.067Z,5.03
2018-06-30T05:40:10.502Z,5.73
2018-06-30T05:45:13.887Z,4.70
2018-06-30T05:50:23.346Z,5.40
2018-06-30T05:55:26.851Z,5.77
2018-06-30T06:00:30.208Z,4.33
2018-06-30T06:05:34.300Z,4.77
2018-06-30T06:10:57.526Z,4.83
2018-06-30T06:16:01.739Z,4.23
2018-06-30T06:21:05.118Z,5.07
2018-06-30T06:26:08.448Z,4.33
2018-06-30T06:31:11.786Z,5.10
2018-06-30T06:36:15.122Z,4.53
2018-06-30T06:41:19.213Z,4.77
2018-06-30T06:46:22.552Z,5.37
2018-06-30T06:51:26.639Z,5.57
2018-06-30T06:56:29.967Z,5.03
2018-06-30T07:01:33.304Z,5.57
2018-06-30T07:06:37.407Z,5.47
2018-06-30T07:11:40.733Z,5.90
2018-06-30T07:16:44.072Z,6.47
2018-06-30T07:21:48.461Z,6.00
2018-06-30T07:26:51.891Z,6.70
2018-06-30T07:31:55.214Z,7.00
2018-06-30T07:36:59.290Z,7.07
2018-06-30T07:42:02.627Z,7.50
2018-06-30T07:47:05.959Z,6.07
2018-06-30T07:52:09.298Z,9.33
2018-06-30T07:57:13.396Z,9.10
2018-06-30T08:02:16.731Z,8.77
2018-06-30T08:07:20.097Z,10.00
2018-06-30T08:12:23.763Z,9.00
2018-06-30T08:17:27.117Z,9.90
2018-06-30T08:22:30.451Z,8.17
2018-06-30T08:27:33.813Z,9.93
2018-06-30T08:32:37.922Z,9.07
2018-06-30T08:37:41.280Z,9.77
2018-06-30T08:42:44.644Z,9.70
2018-06-30T08:47:48.035Z,8.13
2018-06-30T08:52:51.574Z,11.70
2018-06-30T08:57:54.936Z,9.70
2018-06-30T09:02:58.292Z,12.30
2018-06-30T09:08:01.641Z,9.53
2018-06-30T09:13:04.988Z,9.60
2018-06-30T09:18:08.335Z,9.00
2018-06-30T09:23:11.670Z,8.43
2018-06-30T09:28:15.107Z,8.97
2018-06-30T09:33:18.469Z,7.93
2018-06-30T09:38:21.803Z,5.90
2018-06-30T09:43:25.131Z,7.23
2018-06-30T09:48:29.230Z,5.07
2018-06-30T09:53:32.573Z,4.50
2018-06-30T09:58:35.901Z,6.90
2018-06-30T10:03:39.994Z,5.90
2018-06-30T10:08:44.443Z,4.57
2018-06-30T10:13:48.095Z,3.40
2018-06-30T10:18:52.467Z,3.67
2018-06-30T10:23:56.511Z,4.40
2018-06-30T10:29:00.173Z,5.17
2018-06-30T10:34:04.807Z,5.73
2018-06-30T10:39:08.497Z,6.23
2018-06-30T10:44:12.739Z,4.77
2018-06-30T10:49:16.282Z,4.80
2018-06-30T10:54:19.823Z,4.83
2018-06-30T10:59:23.424Z,6.00
2018-06-30T11:04:27.087Z,4.40
2018-06-30T11:09:30.699Z,4.10
2018-06-30T11:14:34.792Z,3.73
2018-06-30T11:19:39.395Z,3.43
2018-06-30T11:24:43.979Z,3.60
2018-06-30T11:29:47.641Z,3.80
2018-06-30T11:34:51.324Z,2.77
2018-06-30T11:39:55.102Z,2.37
2018-06-30T11:44:58.721Z,2.60
2018-06-30T11:50:02.088Z,2.50
2018-06-30T11:55:05.414Z,2.17
2018-06-30T12:00:08.760Z,2.50
2018-06-30T12:05:12.091Z,2.17
2018-06-30T12:10:15.430Z,2.50
2018-06-30T12:15:19.551Z,2.40
2018-06-30T12:20:22.907Z,2.70
2018-06-30T12:25:26.358Z,2.50
2018-06-30T12:30:29.683Z,2.47
2018-06-30T12:35:33.015Z,2.43
2018-06-30T12:40:43.045Z,2.50
2018-06-30T12:45:46.474Z,3.03
2018-06-30T12:51:01.006Z,2.60
2018-06-30T12:56:04.339Z,2.97
2018-06-30T13:01:07.668Z,5.40
2018-06-30T13:06:11.015Z,3.10
2018-06-30T13:11:15.136Z,3.10
2018-06-30T13:16:19.243Z,3.03
2018-06-30T13:21:22.584Z,2.63
2018-06-30T13:26:27.017Z,2.73
2018-06-30T13:31:31.107Z,2.70
2018-06-30T13:36:34.441Z,3.33
2018-06-30T13:41:37.774Z,3.87
2018-06-30T13:46:41.948Z,5.37
2018-06-30T13:51:45.280Z,4.77
2018-06-30T13:56:48.617Z,4.73
2018-06-30T14:01:51.980Z,4.60
2018-06-30T14:06:55.310Z,3.92
2018-06-30T14:11:58.642Z,4.20
2018-06-30T14:17:01.972Z,4.43
2018-06-30T14:22:05.314Z,4.72
2018-06-30T14:27:08.643Z,4.03
2018-06-30T14:32:12.006Z,4.07
2018-06-30T14:37:15.334Z,4.50
2018-06-30T14:42:18.715Z,5.35
2018-06-30T14:47:22.078Z,5.43
2018-06-30T14:52:25.414Z,5.62
2018-06-30T14:57:28.752Z,4.80
2018-06-30T15:02:32.267Z,4.78
2018-06-30T15:07:36.407Z,4.93
2018-06-30T15:12:39.792Z,5.07
2018-06-30T15:17:43.090Z,5.55
2018-06-30T15:22:46.415Z,5.75
2018-06-30T15:27:49.743Z,4.68
2018-06-30T15:32:53.079Z,5.05
2018-06-30T15:37:56.422Z,5.03
2018-06-30T15:42:59.773Z,4.40
2018-06-30T15:48:03.114Z,4.72
2018-06-30T15:53:06.465Z,4.35
2018-06-30T15:58:09.815Z,4.65
2018-06-30T16:03:13.165Z,4.60
2018-06-30T16:08:16.600Z,5.35
2018-06-30T16:13:19.931Z,4.47
2018-06-30T16:18:23.652Z,4.05
2018-06-30T16:23:27.004Z,4.45
2018-06-30T16:28:30.342Z,4.60
2018-06-30T16:33:33.687Z,4.50
2018-06-30T16:38:37.022Z,4.03
2018-06-30T16:43:40.365Z,4.37
2018-06-30T16:48:43.690Z,4.43
2018-06-30T16:53:47.027Z,4.72
2018-06-30T16:58:50.495Z,4.07
2018-06-30T17:03:53.702Z,4.80
2018-06-30T17:08:57.039Z,4.57
2018-06-30T17:14:00.381Z,4.37
2018-06-30T17:19:03.720Z,4.80
2018-06-30T17:24:07.055Z,3.72
2018-06-30T17:29:10.388Z,4.18
2018-06-30T17:34:13.724Z,4.40
2018-06-30T17:39:17.058Z,4.20
2018-06-30T17:44:20.388Z,3.60
2018-06-30T17:49:38.088Z,3.55
2018-06-30T17:54:42.186Z,3.35
2018-06-30T17:59:45.510Z,2.90
2018-06-30T18:04:48.847Z,3.00
2018-06-30T18:10:02.995Z,2.58
2018-06-30T18:15:06.282Z,1.85
2018-06-30T18:20:09.610Z,1.80
2018-06-30T18:25:12.951Z,1.60
2018-06-30T18:30:27.480Z,1.70
2018-06-30T18:35:30.809Z,2.00
2018-06-30T18:40:47.646Z,1.62
2018-06-30T18:45:50.975Z,1.85
2018-06-30T18:50:55.074Z,1.50
2018-06-30T18:55:58.398Z,1.57
2018-06-30T19:01:01.731Z,1.30
2018-06-30T19:06:05.833Z,1.47
2018-06-30T19:11:09.162Z,1.40
2018-06-30T19:16:12.511Z,1.20
2018-06-30T19:21:15.912Z,1.23
2018-06-30T19:26:19.205Z,1.93
2018-06-30T19:31:23.343Z,1.60
2018-06-30T19:36:27.456Z,1.13
2018-06-30T19:41:30.803Z,1.47
2018-06-30T19:46:34.128Z,1.20
2018-06-30T19:51:37.453Z,1.10
2018-06-30T19:56:40.783Z,1.10
2018-06-30T20:01:44.110Z,1.30
2018-06-30T20:06:47.445Z,0.90
2018-06-30T20:11:51.538Z,1.20
2018-06-30T20:16:54.870Z,4.43
2018-06-30T20:21:58.202Z,1.10
2018-06-30T20:27:02.641Z,1.20
2018-06-30T20:32:06.315Z,1.10
2018-06-30T20:37:09.748Z,1.10
2018-06-30T20:42:13.247Z,0.90
2018-06-30T20:47:16.663Z,0.90
2018-06-30T20:52:20.010Z,1.00
2018-06-30T20:57:24.116Z,0.80
2018-06-30T21:02:27.477Z,0.90
2018-06-30T21:07:30.816Z,1.00
2018-06-30T21:12:34.152Z,0.80
2018-06-30T21:17:37.489Z,0.70
2018-06-30T21:22:40.831Z,0.60
2018-06-30T21:27:44.169Z,0.70
2018-06-30T21:32:47.520Z,0.70
2018-06-30T21:37:50.842Z,0.80
2018-06-30T21:42:54.171Z,0.80
2018-06-30T21:47:58.272Z,1.00
2018-06-30T21:53:02.375Z,0.70
2018-06-30T21:58:05.703Z,0.80
2018-06-30T22:03:09.030Z,0.90
2018-06-30T22:08:12.383Z,1.00
2018-06-30T22:13:15.711Z,0.73
2018-06-30T22:18:19.082Z,1.37
2018-06-30T22:23:22.374Z,0.80
2018-06-30T22:28:25.710Z,0.70
